sensor_id;sensor_type;location;lat;lon;timestamp;pressure;altitude;pressure_sealevel;temperature;humidity
71424;BME280;59240;51.370;-0.486;2022-08-19T00:01:25;101234.06;;;20.29;71.22
71424;BME280;59240;51.370;-0.486;2022-08-19T00:03:57;101228.78;;;20.29;71.18
71424;BME280;59240;51.370;-0.486;2022-08-19T00:06:26;101229.63;;;20.29;71.46
71424;BME280;59240;51.370;-0.486;2022-08-19T00:08:54;101228.78;;;20.29;71.44
71424;BME280;59240;51.370;-0.486;2022-08-19T00:11:22;101209.31;;;20.14;71.33
71424;BME280;59240;51.370;-0.486;2022-08-19T00:13:52;101224.00;;;20.19;71.53
71424;BME280;59240;51.370;-0.486;2022-08-19T00:16:18;101234.06;;;20.29;71.49
71424;BME280;59240;51.370;-0.486;2022-08-19T00:18:51;101223.81;;;20.22;71.63
71424;BME280;59240;51.370;-0.486;2022-08-19T00:21:18;101230.66;;;20.27;72.20
71424;BME280;59240;51.370;-0.486;2022-08-19T00:23:45;101203.19;;;20.13;72.40
71424;BME280;59240;51.370;-0.486;2022-08-19T00:26:11;101199.78;;;20.11;71.82
71424;BME280;59240;51.370;-0.486;2022-08-19T00:28:38;101225.72;;;20.20;72.17
71424;BME280;59240;51.370;-0.486;2022-08-19T00:31:06;101204.03;;;20.14;72.46
71424;BME280;59240;51.370;-0.486;2022-08-19T00:33:33;101204.88;;;20.14;72.39
71424;BME280;59240;51.370;-0.486;2022-08-19T00:36:01;101222.13;;;20.21;72.73
71424;BME280;59240;51.370;-0.486;2022-08-19T00:38:30;101220.94;;;20.27;72.58
71424;BME280;59240;51.370;-0.486;2022-08-19T00:41:04;101207.34;;;20.17;72.60
71424;BME280;59240;51.370;-0.486;2022-08-19T00:43:31;101193.69;;;20.09;72.57
71424;BME280;59240;51.370;-0.486;2022-08-19T00:45:58;101226.31;;;20.26;73.02
71424;BME280;59240;51.370;-0.486;2022-08-19T00:48:25;101197.97;;;20.12;72.75
71424;BME280;59240;51.370;-0.486;2022-08-19T00:50:53;101210.69;;;20.21;73.01
71424;BME280;59240;51.370;-0.486;2022-08-19T00:53:24;101214.78;;;20.27;72.93
71424;BME280;59240;51.370;-0.486;2022-08-19T00:55:55;101194.47;;;20.11;72.91
71424;BME280;59240;51.370;-0.486;2022-08-19T00:58:27;101206.59;;;20.15;72.71
71424;BME280;59240;51.370;-0.486;2022-08-19T01:00:55;101202.00;;;20.19;72.97
71424;BME280;59240;51.370;-0.486;2022-08-19T01:03:22;101191.56;;;20.16;73.11
71424;BME280;59240;51.370;-0.486;2022-08-19T01:05:51;101175.19;;;20.09;73.43
71424;BME280;59240;51.370;-0.486;2022-08-19T01:08:19;101203.50;;;20.23;73.04
71424;BME280;59240;51.370;-0.486;2022-08-19T01:10:55;101195.06;;;20.16;73.00
71424;BME280;59240;51.370;-0.486;2022-08-19T01:13:27;101201.13;;;20.18;73.05
71424;BME280;59240;51.370;-0.486;2022-08-19T01:16:16;101202.00;;;20.19;72.82
71424;BME280;59240;51.370;-0.486;2022-08-19T01:18:44;101201.91;;;20.20;72.91
71424;BME280;59240;51.370;-0.486;2022-08-19T01:21:36;101203.84;;;20.17;72.98
71424;BME280;59240;51.370;-0.486;2022-08-19T01:24:04;101206.44;;;20.18;73.23
71424;BME280;59240;51.370;-0.486;2022-08-19T01:26:31;101153.50;;;19.87;73.45
71424;BME280;59240;51.370;-0.486;2022-08-19T01:28:58;101209.06;;;20.18;72.96
71424;BME280;59240;51.370;-0.486;2022-08-19T01:31:28;101166.38;;;19.93;73.26
71424;BME280;59240;51.370;-0.486;2022-08-19T01:34:00;101199.78;;;20.11;73.56
71424;BME280;59240;51.370;-0.486;2022-08-19T01:38:56;101167.34;;;19.92;73.72
71424;BME280;59240;51.370;-0.486;2022-08-19T01:41:24;101198.03;;;20.10;73.69
71424;BME280;59240;51.370;-0.486;2022-08-19T01:43:52;101203.00;;;20.16;73.75
71424;BME280;59240;51.370;-0.486;2022-08-19T01:46:40;101200.44;;;20.15;73.56
71424;BME280;59240;51.370;-0.486;2022-08-19T01:49:07;101208.28;;;20.16;73.62
71424;BME280;59240;51.370;-0.486;2022-08-19T01:51:35;101174.94;;;19.98;73.84
71424;BME280;59240;51.370;-0.486;2022-08-19T01:54:11;101171.50;;;19.96;74.18
71424;BME280;59240;51.370;-0.486;2022-08-19T01:56:38;101184.22;;;20.05;73.58
71424;BME280;59240;51.370;-0.486;2022-08-19T01:59:09;101169.56;;;20.00;73.78
71424;BME280;59240;51.370;-0.486;2022-08-19T02:01:37;101197.56;;;20.19;73.79
71424;BME280;59240;51.370;-0.486;2022-08-19T02:04:04;101181.41;;;20.08;73.75
71424;BME280;59240;51.370;-0.486;2022-08-19T02:06:32;101189.19;;;20.11;73.75
71424;BME280;59240;51.370;-0.486;2022-08-19T02:08:59;101187.31;;;20.13;73.88
71424;BME280;59240;51.370;-0.486;2022-08-19T02:11:29;101219.31;;;20.25;74.11
71424;BME280;59240;51.370;-0.486;2022-08-19T02:13:58;101200.19;;;20.19;73.52
71424;BME280;59240;51.370;-0.486;2022-08-19T02:16:25;101208.56;;;20.28;73.59
71424;BME280;59240;51.370;-0.486;2022-08-19T02:18:52;101211.19;;;20.28;73.97
71424;BME280;59240;51.370;-0.486;2022-08-19T02:21:21;101212.81;;;20.30;74.10
71424;BME280;59240;51.370;-0.486;2022-08-19T02:23:49;101175.03;;;20.12;73.71
71424;BME280;59240;51.370;-0.486;2022-08-19T02:26:17;101200.44;;;20.31;73.74
71424;BME280;59240;51.370;-0.486;2022-08-19T02:28:45;101179.03;;;20.19;73.64
71424;BME280;59240;51.370;-0.486;2022-08-19T02:31:13;101199.44;;;20.33;73.55
71424;BME280;59240;51.370;-0.486;2022-08-19T02:33:44;101182.53;;;20.20;74.08
71424;BME280;59240;51.370;-0.486;2022-08-19T02:36:13;101177.06;;;20.07;73.87
71424;BME280;59240;51.370;-0.486;2022-08-19T02:38:41;101206.84;;;20.27;73.66
71424;BME280;59240;51.370;-0.486;2022-08-19T02:41:17;101192.59;;;20.13;74.35
71424;BME280;59240;51.370;-0.486;2022-08-19T02:43:44;101191.91;;;20.10;74.28
71424;BME280;59240;51.370;-0.486;2022-08-19T02:46:32;101217.16;;;20.15;75.06
71424;BME280;59240;51.370;-0.486;2022-08-19T02:49:02;101218.09;;;20.14;75.46
71424;BME280;59240;51.370;-0.486;2022-08-19T02:51:35;101203.50;;;20.07;75.61
71424;BME280;59240;51.370;-0.486;2022-08-19T02:54:04;101179.75;;;19.90;76.33
71424;BME280;59240;51.370;-0.486;2022-08-19T02:56:33;101187.63;;;19.91;75.98
71424;BME280;59240;51.370;-0.486;2022-08-19T02:59:00;101217.06;;;20.01;76.37
71424;BME280;59240;51.370;-0.486;2022-08-19T03:01:30;101200.75;;;19.93;77.01
71424;BME280;59240;51.370;-0.486;2022-08-19T03:03:59;101202.72;;;19.89;76.67
71424;BME280;59240;51.370;-0.486;2022-08-19T03:06:27;101216.31;;;19.99;76.86
71424;BME280;59240;51.370;-0.486;2022-08-19T03:08:54;101227.03;;;19.96;77.65
71424;BME280;59240;51.370;-0.486;2022-08-19T03:11:29;101201.28;;;19.84;77.17
71424;BME280;59240;51.370;-0.486;2022-08-19T03:13:58;101222.78;;;19.93;77.45
71424;BME280;59240;51.370;-0.486;2022-08-19T03:16:27;101201.28;;;19.84;77.64
71424;BME280;59240;51.370;-0.486;2022-08-19T03:19:00;101218.50;;;19.91;77.53
71424;BME280;59240;51.370;-0.486;2022-08-19T03:21:29;101216.78;;;19.90;77.32
71424;BME280;59240;51.370;-0.486;2022-08-19T03:24:01;101223.81;;;19.91;77.73
71424;BME280;59240;51.370;-0.486;2022-08-19T03:26:28;101216.78;;;19.90;77.56
71424;BME280;59240;51.370;-0.486;2022-08-19T03:28:56;101218.50;;;19.91;78.02
71424;BME280;59240;51.370;-0.486;2022-08-19T03:31:25;101219.38;;;19.91;78.14
71424;BME280;59240;51.370;-0.486;2022-08-19T03:34:16;101198.00;;;19.79;77.69
71424;BME280;59240;51.370;-0.486;2022-08-19T03:36:44;101215.06;;;19.89;77.67
71424;BME280;59240;51.370;-0.486;2022-08-19T03:39:11;101216.44;;;19.80;77.96
71424;BME280;59240;51.370;-0.486;2022-08-19T03:41:40;101237.03;;;19.91;77.90
71424;BME280;59240;51.370;-0.486;2022-08-19T03:44:13;101234.53;;;19.88;77.70
71424;BME280;59240;51.370;-0.486;2022-08-19T03:46:43;101230.34;;;19.84;78.09
71424;BME280;59240;51.370;-0.486;2022-08-19T03:49:10;101223.75;;;19.75;78.27
71424;BME280;59240;51.370;-0.486;2022-08-19T03:51:41;101211.13;;;19.64;78.52
71424;BME280;59240;51.370;-0.486;2022-08-19T03:54:10;101224.06;;;19.69;78.84
71424;BME280;59240;51.370;-0.486;2022-08-19T03:56:38;101223.38;;;19.65;78.78
71424;BME280;59240;51.370;-0.486;2022-08-19T03:59:10;101211.44;;;19.58;78.99
71424;BME280;59240;51.370;-0.486;2022-08-19T04:01:37;101212.13;;;19.62;79.15
71424;BME280;59240;51.370;-0.486;2022-08-19T04:04:04;101198.81;;;19.46;79.07
71424;BME280;59240;51.370;-0.486;2022-08-19T04:06:34;101247.94;;;19.67;79.42
71424;BME280;59240;51.370;-0.486;2022-08-19T04:09:07;101238.50;;;19.63;79.29
71424;BME280;59240;51.370;-0.486;2022-08-19T04:11:38;101235.13;;;19.60;79.88
71424;BME280;59240;51.370;-0.486;2022-08-19T04:14:12;101223.22;;;19.51;79.59
71424;BME280;59240;51.370;-0.486;2022-08-19T04:16:40;101227.75;;;19.49;80.10
71424;BME280;59240;51.370;-0.486;2022-08-19T04:19:07;101220.06;;;19.45;80.34
71424;BME280;59240;51.370;-0.486;2022-08-19T04:21:34;101219.03;;;19.47;80.31
71424;BME280;59240;51.370;-0.486;2022-08-19T04:24:01;101198.69;;;19.32;80.46
71424;BME280;59240;51.370;-0.486;2022-08-19T04:26:34;101221.97;;;19.41;80.70
71424;BME280;59240;51.370;-0.486;2022-08-19T04:29:05;101236.59;;;19.48;80.27
71424;BME280;59240;51.370;-0.486;2022-08-19T04:31:38;101227.25;;;19.41;80.21
71424;BME280;59240;51.370;-0.486;2022-08-19T04:34:06;101216.88;;;19.38;80.66
71424;BME280;59240;51.370;-0.486;2022-08-19T04:36:36;101239.31;;;19.47;80.71
71424;BME280;59240;51.370;-0.486;2022-08-19T04:39:09;101233.50;;;19.40;80.38
71424;BME280;59240;51.370;-0.486;2022-08-19T04:41:36;101257.28;;;19.40;80.89
71424;BME280;59240;51.370;-0.486;2022-08-19T04:44:21;101256.63;;;19.35;80.94
71424;BME280;59240;51.370;-0.486;2022-08-19T04:46:49;101262.09;;;19.32;80.53
71424;BME280;59240;51.370;-0.486;2022-08-19T04:49:21;101252.56;;;19.29;80.98
71424;BME280;59240;51.370;-0.486;2022-08-19T04:51:50;101271.09;;;19.28;81.33
71424;BME280;59240;51.370;-0.486;2022-08-19T04:54:18;101250.59;;;19.16;80.94
71424;BME280;59240;51.370;-0.486;2022-08-19T04:57:05;101271.09;;;19.28;81.45
71424;BME280;59240;51.370;-0.486;2022-08-19T04:59:33;101254.16;;;19.14;80.65
71424;BME280;59240;51.370;-0.486;2022-08-19T05:02:00;101241.34;;;19.07;80.92
71424;BME280;59240;51.370;-0.486;2022-08-19T05:04:27;101261.00;;;19.19;80.79
71424;BME280;59240;51.370;-0.486;2022-08-19T05:06:59;101279.41;;;19.20;80.35
71424;BME280;59240;51.370;-0.486;2022-08-19T05:09:28;101284.78;;;19.19;80.72
71424;BME280;59240;51.370;-0.486;2022-08-19T05:12:15;101290.13;;;19.17;80.22
71424;BME280;59240;51.370;-0.486;2022-08-19T05:14:43;101283.44;;;19.10;80.33
71424;BME280;59240;51.370;-0.486;2022-08-19T05:17:12;101291.94;;;19.17;80.63
71424;BME280;59240;51.370;-0.486;2022-08-19T05:19:58;101279.88;;;19.11;80.26
71424;BME280;59240;51.370;-0.486;2022-08-19T05:22:45;101299.78;;;19.18;80.07
71424;BME280;59240;51.370;-0.486;2022-08-19T05:25:16;101295.34;;;19.19;80.26
71424;BME280;59240;51.370;-0.486;2022-08-19T05:27:45;101289.13;;;19.20;80.56
71424;BME280;59240;51.370;-0.486;2022-08-19T05:30:12;101283.91;;;19.18;80.57
71424;BME280;59240;51.370;-0.486;2022-08-19T05:32:40;101296.91;;;19.23;80.60
71424;BME280;59240;51.370;-0.486;2022-08-19T05:35:07;101284.78;;;19.19;80.19
71424;BME280;59240;51.370;-0.486;2022-08-19T05:37:34;101295.13;;;19.23;80.31
71424;BME280;59240;51.370;-0.486;2022-08-19T05:40:01;101272.03;;;19.09;80.19
71424;BME280;59240;51.370;-0.486;2022-08-19T05:42:28;101249.50;;;19.02;79.95
71424;BME280;59240;51.370;-0.486;2022-08-19T05:44:55;101276.84;;;19.19;80.34
71424;BME280;59240;51.370;-0.486;2022-08-19T05:47:22;101258.03;;;19.07;79.59
71424;BME280;59240;51.370;-0.486;2022-08-19T05:49:49;101288.81;;;19.26;80.42
71424;BME280;59240;51.370;-0.486;2022-08-19T05:52:19;101293.16;;;19.27;79.45
71424;BME280;59240;51.370;-0.486;2022-08-19T05:54:52;101292.22;;;19.28;79.37
71424;BME280;59240;51.370;-0.486;2022-08-19T05:57:22;101279.56;;;19.17;79.64
71424;BME280;59240;51.370;-0.486;2022-08-19T05:59:49;101277.00;;;19.16;79.46
71424;BME280;59240;51.370;-0.486;2022-08-19T06:02:26;101302.97;;;19.25;79.28
71424;BME280;59240;51.370;-0.486;2022-08-19T06:04:53;101261.91;;;19.00;79.62
71424;BME280;59240;51.370;-0.486;2022-08-19T06:07:20;101277.00;;;19.16;79.91
71424;BME280;59240;51.370;-0.486;2022-08-19T06:09:46;101264.19;;;19.08;79.83
71424;BME280;59240;51.370;-0.486;2022-08-19T06:12:32;101310.38;;;19.35;80.17
71424;BME280;59240;51.370;-0.486;2022-08-19T06:15:07;101292.41;;;19.25;79.41
71424;BME280;59240;51.370;-0.486;2022-08-19T06:17:34;101297.47;;;19.29;79.69
71424;BME280;59240;51.370;-0.486;2022-08-19T06:20:06;101311.22;;;19.36;79.32
71424;BME280;59240;51.370;-0.486;2022-08-19T06:22:38;101318.88;;;19.40;79.12
71424;BME280;59240;51.370;-0.486;2022-08-19T06:25:05;101311.97;;;19.38;79.37
71424;BME280;59240;51.370;-0.486;2022-08-19T06:27:32;101306.63;;;19.39;79.16
71424;BME280;59240;51.370;-0.486;2022-08-19T06:29:59;101299.94;;;19.32;79.16
71424;BME280;59240;51.370;-0.486;2022-08-19T06:32:26;101310.13;;;19.40;79.29
71424;BME280;59240;51.370;-0.486;2022-08-19T06:34:53;101293.88;;;19.30;79.15
71424;BME280;59240;51.370;-0.486;2022-08-19T06:37:20;101320.59;;;19.41;78.62
71424;BME280;59240;51.370;-0.486;2022-08-19T06:39:48;101300.94;;;19.30;78.88
71424;BME280;59240;51.370;-0.486;2022-08-19T06:42:16;101325.97;;;19.40;78.67
71424;BME280;59240;51.370;-0.486;2022-08-19T06:44:47;101326.72;;;19.42;79.36
71424;BME280;59240;51.370;-0.486;2022-08-19T06:47:20;101313.69;;;19.39;79.33
71424;BME280;59240;51.370;-0.486;2022-08-19T06:49:53;101326.44;;;19.48;79.36
71424;BME280;59240;51.370;-0.486;2022-08-19T06:52:33;101322.53;;;19.55;79.95
71424;BME280;59240;51.370;-0.486;2022-08-19T06:55:04;101327.56;;;19.61;79.67
71424;BME280;59240;51.370;-0.486;2022-08-19T06:57:32;101323.66;;;19.68;78.59
71424;BME280;59240;51.370;-0.486;2022-08-19T06:59:58;101302.22;;;19.57;79.09
71424;BME280;59240;51.370;-0.486;2022-08-19T07:02:26;101310.63;;;19.65;79.13
71424;BME280;59240;51.370;-0.486;2022-08-19T07:04:53;101315.88;;;19.83;79.23
71424;BME280;59240;51.370;-0.486;2022-08-19T07:07:20;101320.69;;;19.92;79.33
71424;BME280;59240;51.370;-0.486;2022-08-19T07:09:48;101316.03;;;19.97;78.42
71424;BME280;59240;51.370;-0.486;2022-08-19T07:12:24;101310.75;;;19.97;77.49
71424;BME280;59240;51.370;-0.486;2022-08-19T07:14:51;101286.72;;;19.84;76.90
71424;BME280;59240;51.370;-0.486;2022-08-19T07:17:19;101276.47;;;19.78;77.25
71424;BME280;59240;51.370;-0.486;2022-08-19T07:19:47;101301.06;;;19.96;77.07
71424;BME280;59240;51.370;-0.486;2022-08-19T07:22:14;101323.16;;;20.12;76.80
71424;BME280;59240;51.370;-0.486;2022-08-19T07:24:42;101293.94;;;19.98;77.32
71424;BME280;59240;51.370;-0.486;2022-08-19T07:27:16;101329.72;;;20.21;76.36
71424;BME280;59240;51.370;-0.486;2022-08-19T07:29:49;101293.09;;;19.98;75.64
71424;BME280;59240;51.370;-0.486;2022-08-19T07:32:23;101313.03;;;20.03;74.88
71424;BME280;59240;51.370;-0.486;2022-08-19T07:34:52;101316.47;;;20.05;75.37
71424;BME280;59240;51.370;-0.486;2022-08-19T07:37:19;101331.66;;;20.17;75.21
71424;BME280;59240;51.370;-0.486;2022-08-19T07:39:46;101338.38;;;20.25;74.14
71424;BME280;59240;51.370;-0.486;2022-08-19T07:42:13;101319.47;;;20.15;73.66
71424;BME280;59240;51.370;-0.486;2022-08-19T07:44:41;101334.78;;;20.26;73.41
71424;BME280;59240;51.370;-0.486;2022-08-19T07:47:15;101316.75;;;20.16;73.15
71424;BME280;59240;51.370;-0.486;2022-08-19T07:50:05;101332.16;;;20.26;74.02
71424;BME280;59240;51.370;-0.486;2022-08-19T07:52:33;101329.16;;;20.32;73.14
71424;BME280;59240;51.370;-0.486;2022-08-19T07:55:03;101323.09;;;20.30;71.85
71424;BME280;59240;51.370;-0.486;2022-08-19T07:57:30;101330.44;;;20.25;72.01
71424;BME280;59240;51.370;-0.486;2022-08-19T07:59:57;101328.19;;;20.17;71.99
71424;BME280;59240;51.370;-0.486;2022-08-19T08:02:24;101338.09;;;20.13;71.85
71424;BME280;59240;51.370;-0.486;2022-08-19T08:04:50;101331.19;;;20.11;71.53
71424;BME280;59240;51.370;-0.486;2022-08-19T08:07:35;101356.28;;;20.19;70.96
71424;BME280;59240;51.370;-0.486;2022-08-19T08:10:28;101348.97;;;20.07;70.56
71424;BME280;59240;51.370;-0.486;2022-08-19T08:12:54;101345.88;;;19.99;71.10
71424;BME280;59240;51.370;-0.486;2022-08-19T08:15:38;101363.22;;;20.05;70.74
71424;BME280;59240;51.370;-0.486;2022-08-19T08:18:10;101353.97;;;19.96;70.56
71424;BME280;59240;51.370;-0.486;2022-08-19T08:20:37;101349.00;;;19.90;70.37
71424;BME280;59240;51.370;-0.486;2022-08-19T08:23:04;101369.06;;;19.94;71.08
71424;BME280;59240;51.370;-0.486;2022-08-19T08:25:51;101345.91;;;19.82;70.86
71424;BME280;59240;51.370;-0.486;2022-08-19T08:28:18;101352.25;;;19.95;69.64
71424;BME280;59240;51.370;-0.486;2022-08-19T08:30:46;101359.97;;;20.00;68.85
71424;BME280;59240;51.370;-0.486;2022-08-19T08:33:22;101356.56;;;19.98;68.28
71424;BME280;59240;51.370;-0.486;2022-08-19T08:36:06;101369.53;;;20.02;68.84
71424;BME280;59240;51.370;-0.486;2022-08-19T08:38:33;101339.13;;;19.93;68.59
71424;BME280;59240;51.370;-0.486;2022-08-19T08:44:27;101371.00;;;20.41;67.56
71424;BME280;59240;51.370;-0.486;2022-08-19T08:47:02;101353.25;;;20.43;67.37
71424;BME280;59240;51.370;-0.486;2022-08-19T08:54:58;101371.84;;;20.90;65.92
71424;BME280;59240;51.370;-0.486;2022-08-19T08:57:29;101353.22;;;20.92;65.06
71424;BME280;59240;51.370;-0.486;2022-08-19T09:00:10;101369.19;;;21.06;64.52
71424;BME280;59240;51.370;-0.486;2022-08-19T09:02:41;101367.56;;;21.19;64.20
71424;BME280;59240;51.370;-0.486;2022-08-19T09:05:10;101358.59;;;21.38;63.91
71424;BME280;59240;51.370;-0.486;2022-08-19T09:08:07;101361.47;;;21.79;64.10
71424;BME280;59240;51.370;-0.486;2022-08-19T09:10:43;101360.31;;;22.27;59.89
71424;BME280;59240;51.370;-0.486;2022-08-19T09:13:17;101360.59;;;22.51;59.94
71424;BME280;59240;51.370;-0.486;2022-08-19T09:16:07;101361.25;;;22.55;58.13
71424;BME280;59240;51.370;-0.486;2022-08-19T09:18:42;101360.88;;;22.47;58.48
71424;BME280;59240;51.370;-0.486;2022-08-19T09:21:10;101362.78;;;22.45;56.06
71424;BME280;59240;51.370;-0.486;2022-08-19T09:23:37;101347.63;;;22.32;56.52
71424;BME280;59240;51.370;-0.486;2022-08-19T09:26:11;101362.00;;;22.43;57.04
71424;BME280;59240;51.370;-0.486;2022-08-19T09:28:43;101362.78;;;22.45;56.45
71424;BME280;59240;51.370;-0.486;2022-08-19T09:31:19;101324.84;;;22.28;55.88
71424;BME280;59240;51.370;-0.486;2022-08-19T09:33:47;101354.03;;;22.43;55.25
71424;BME280;59240;51.370;-0.486;2022-08-19T09:36:20;101350.66;;;22.41;55.54
71424;BME280;59240;51.370;-0.486;2022-08-19T09:39:00;101338.69;;;22.33;56.51
71424;BME280;59240;51.370;-0.486;2022-08-19T09:41:27;101338.03;;;22.30;56.00
71424;BME280;59240;51.370;-0.486;2022-08-19T09:43:56;101366.19;;;22.47;56.85
71424;BME280;59240;51.370;-0.486;2022-08-19T09:46:27;101368.09;;;22.45;55.82
71424;BME280;59240;51.370;-0.486;2022-08-19T09:48:57;101362.97;;;22.42;56.24
71424;BME280;59240;51.370;-0.486;2022-08-19T09:51:32;101364.50;;;22.46;56.68
71424;BME280;59240;51.370;-0.486;2022-08-19T09:54:02;101345.53;;;22.37;55.52
71424;BME280;59240;51.370;-0.486;2022-08-19T09:56:31;101345.34;;;22.41;54.99
71424;BME280;59240;51.370;-0.486;2022-08-19T09:59:00;101367.69;;;22.51;55.10
71424;BME280;59240;51.370;-0.486;2022-08-19T10:01:29;101368.56;;;22.51;55.21
71424;BME280;59240;51.370;-0.486;2022-08-19T10:03:58;101366.00;;;22.50;55.70
71424;BME280;59240;51.370;-0.486;2022-08-19T10:06:28;101370.53;;;22.62;54.18
71424;BME280;59240;51.370;-0.486;2022-08-19T10:09:11;101344.94;;;22.61;54.57
71424;BME280;59240;51.370;-0.486;2022-08-19T10:11:43;101353.63;;;22.77;54.47
71424;BME280;59240;51.370;-0.486;2022-08-19T10:14:20;101345.25;;;22.98;54.01
71424;BME280;59240;51.370;-0.486;2022-08-19T10:16:49;101351.06;;;23.17;54.43
71424;BME280;59240;51.370;-0.486;2022-08-19T10:19:18;101322.56;;;23.19;53.83
71424;BME280;59240;51.370;-0.486;2022-08-19T10:21:51;101340.94;;;23.36;52.58
71424;BME280;59240;51.370;-0.486;2022-08-19T10:24:18;101357.16;;;23.59;53.04
71424;BME280;59240;51.370;-0.486;2022-08-19T10:26:47;101359.97;;;23.70;53.61
71424;BME280;59240;51.370;-0.486;2022-08-19T10:29:25;101285.84;;;23.51;52.96
71424;BME280;59240;51.370;-0.486;2022-08-19T10:32:03;101348.50;;;24.08;52.69
71424;BME280;59240;51.370;-0.486;2022-08-19T10:34:38;101319.44;;;24.05;49.72
71424;BME280;59240;51.370;-0.486;2022-08-19T10:37:16;101286.13;;;23.86;50.06
71424;BME280;59240;51.370;-0.486;2022-08-19T10:39:56;101333.47;;;24.07;49.36
71424;BME280;59240;51.370;-0.486;2022-08-19T10:42:23;101376.81;;;24.21;48.43
71424;BME280;59240;51.370;-0.486;2022-08-19T10:44:50;101359.66;;;23.87;48.37
71424;BME280;59240;51.370;-0.486;2022-08-19T10:47:17;101366.72;;;23.88;48.29
71424;BME280;59240;51.370;-0.486;2022-08-19T10:49:55;101389.91;;;23.86;47.02
71424;BME280;59240;51.370;-0.486;2022-08-19T10:52:44;101351.66;;;23.62;47.04
71424;BME280;59240;51.370;-0.486;2022-08-19T10:55:21;101377.41;;;23.74;44.23
71424;BME280;59240;51.370;-0.486;2022-08-19T10:58:15;101372.22;;;23.85;46.27
71424;BME280;59240;51.370;-0.486;2022-08-19T11:00:43;101384.41;;;24.02;46.25
71424;BME280;59240;51.370;-0.486;2022-08-19T11:03:10;101371.47;;;24.09;45.33
71424;BME280;59240;51.370;-0.486;2022-08-19T11:05:37;101390.03;;;24.10;44.70
71424;BME280;59240;51.370;-0.486;2022-08-19T11:08:07;101381.31;;;23.95;45.03
71424;BME280;59240;51.370;-0.486;2022-08-19T11:10:49;101384.28;;;23.91;45.10
71424;BME280;59240;51.370;-0.486;2022-08-19T11:13:15;101349.22;;;23.71;45.26
71424;BME280;59240;51.370;-0.486;2022-08-19T11:15:42;101386.50;;;23.97;43.97
71424;BME280;59240;51.370;-0.486;2022-08-19T11:18:13;101330.56;;;23.59;43.02
71424;BME280;59240;51.370;-0.486;2022-08-19T11:20:40;101353.16;;;23.66;43.73
71424;BME280;59240;51.370;-0.486;2022-08-19T11:23:07;101400.00;;;23.94;42.29
71424;BME280;59240;51.370;-0.486;2022-08-19T11:25:38;101330.56;;;23.59;41.18
71424;BME280;59240;51.370;-0.486;2022-08-19T11:28:06;101371.06;;;23.89;42.87
71424;BME280;59240;51.370;-0.486;2022-08-19T11:30:32;101403.22;;;24.12;42.48
71424;BME280;59240;51.370;-0.486;2022-08-19T11:32:59;101391.75;;;24.11;41.29
71424;BME280;59240;51.370;-0.486;2022-08-19T11:35:27;101343.63;;;23.89;41.28
71424;BME280;59240;51.370;-0.486;2022-08-19T11:37:54;101344.97;;;23.94;40.82
71424;BME280;59240;51.370;-0.486;2022-08-19T11:40:26;101374.06;;;24.23;41.13
71424;BME280;59240;51.370;-0.486;2022-08-19T11:42:53;101354.03;;;24.30;41.39
71424;BME280;59240;51.370;-0.486;2022-08-19T11:45:27;101318.88;;;24.25;40.10
71424;BME280;59240;51.370;-0.486;2022-08-19T11:47:54;101376.09;;;24.94;39.36
71424;BME280;59240;51.370;-0.486;2022-08-19T11:50:22;101394.84;;;25.29;38.74
71424;BME280;59240;51.370;-0.486;2022-08-19T11:52:54;101319.38;;;24.92;38.62
71424;BME280;59240;51.370;-0.486;2022-08-19T11:55:31;101391.59;;;25.61;37.76
71424;BME280;59240;51.370;-0.486;2022-08-19T11:58:09;101320.72;;;25.46;36.01
71424;BME280;59240;51.370;-0.486;2022-08-19T12:00:44;101346.19;;;25.85;36.38
71424;BME280;59240;51.370;-0.486;2022-08-19T12:03:15;101387.53;;;26.48;35.11
71424;BME280;59240;51.370;-0.486;2022-08-19T12:05:42;101373.47;;;26.46;34.49
71424;BME280;59240;51.370;-0.486;2022-08-19T12:08:08;101354.41;;;26.51;34.59
71424;BME280;59240;51.370;-0.486;2022-08-19T12:10:35;101391.44;;;26.66;33.89
71424;BME280;59240;51.370;-0.486;2022-08-19T12:13:02;101396.31;;;26.50;33.98
71424;BME280;59240;51.370;-0.486;2022-08-19T12:15:29;101398.94;;;26.39;34.08
71424;BME280;59240;51.370;-0.486;2022-08-19T12:18:03;101384.63;;;26.40;34.64
71424;BME280;59240;51.370;-0.486;2022-08-19T12:20:30;101387.31;;;26.51;33.91
71424;BME280;59240;51.370;-0.486;2022-08-19T12:23:02;101376.28;;;26.44;33.70
71424;BME280;59240;51.370;-0.486;2022-08-19T12:25:29;101365.31;;;26.36;33.59
71424;BME280;59240;51.370;-0.486;2022-08-19T12:27:55;101364.19;;;26.28;33.95
71424;BME280;59240;51.370;-0.486;2022-08-19T12:30:23;101373.59;;;26.44;34.58
71424;BME280;59240;51.370;-0.486;2022-08-19T12:32:50;101386.09;;;26.78;33.10
71424;BME280;59240;51.370;-0.486;2022-08-19T12:35:18;101361.69;;;26.60;34.03
71424;BME280;59240;51.370;-0.486;2022-08-19T12:37:48;101370.19;;;26.54;34.00
71424;BME280;59240;51.370;-0.486;2022-08-19T12:40:23;101395.09;;;26.54;32.97
71424;BME280;59240;51.370;-0.486;2022-08-19T12:42:52;101371.53;;;26.70;32.90
71424;BME280;59240;51.370;-0.486;2022-08-19T12:45:19;101365.38;;;27.02;32.46
71424;BME280;59240;51.370;-0.486;2022-08-19T12:47:46;101371.59;;;27.35;31.12
71424;BME280;59240;51.370;-0.486;2022-08-19T12:50:15;101365.75;;;27.41;31.93
71424;BME280;59240;51.370;-0.486;2022-08-19T12:52:46;101371.97;;;27.62;31.57
71424;BME280;59240;51.370;-0.486;2022-08-19T12:55:14;101374.53;;;27.85;30.69
71424;BME280;59240;51.370;-0.486;2022-08-19T12:57:41;101380.63;;;27.87;30.59
71424;BME280;59240;51.370;-0.486;2022-08-19T13:00:14;101368.28;;;27.74;29.85
71424;BME280;59240;51.370;-0.486;2022-08-19T13:02:45;101342.56;;;27.51;30.02
71424;BME280;59240;51.370;-0.486;2022-08-19T13:05:20;101370.50;;;27.69;30.00
71424;BME280;59240;51.370;-0.486;2022-08-19T13:07:51;101371.47;;;27.68;29.40
71424;BME280;59240;51.370;-0.486;2022-08-19T13:10:20;101375.59;;;27.72;29.92